createdAt,value
2019-05-10T00:00:46.003Z,16.10
2019-05-10T00:01:46.017Z,15.30
2019-05-10T00:02:45.999Z,14.10
2019-05-10T00:03:46.007Z,14.90
2019-05-10T00:04:46.015Z,16.30
2019-05-10T00:05:46.021Z,15.30
2019-05-10T00:06:46.035Z,15.50
2019-05-10T00:07:46.042Z,14.60
2019-05-10T00:08:46.046Z,15.40
2019-05-10T00:09:46.060Z,18.50
2019-05-10T00:10:46.051Z,18.90
2019-05-10T00:11:49.060Z,16.00
2019-05-10T00:12:46.073Z,16.10
2019-05-10T00:13:46.084Z,19.40
2019-05-10T00:14:46.089Z,18.70
2019-05-10T00:15:46.095Z,17.80
2019-05-10T00:16:46.098Z,15.10
2019-05-10T00:17:46.106Z,16.50
2019-05-10T00:18:46.118Z,15.80
2019-05-10T00:19:46.116Z,18.30
2019-05-10T00:20:46.145Z,16.10
2019-05-10T00:21:46.135Z,17.10
2019-05-10T00:22:46.142Z,16.90
2019-05-10T00:23:46.139Z,17.30
2019-05-10T00:25:02.449Z,17.70
2019-05-10T00:25:46.176Z,15.90
2019-05-10T00:26:46.171Z,14.90
2019-05-10T00:27:46.167Z,18.80
2019-05-10T00:28:46.181Z,16.60
2019-05-10T00:29:46.189Z,18.10
2019-05-10T00:30:46.200Z,16.50
2019-05-10T00:31:46.210Z,16.40
2019-05-10T00:32:46.212Z,14.90
2019-05-10T00:33:46.222Z,16.90
2019-05-10T00:34:46.229Z,15.60
2019-05-10T00:35:46.229Z,15.10
2019-05-10T00:36:46.244Z,15.40
2019-05-10T00:37:46.248Z,16.50
2019-05-10T00:38:46.261Z,16.30
2019-05-10T00:39:46.260Z,14.70
2019-05-10T00:40:46.267Z,16.40
2019-05-10T00:41:46.268Z,16.30
2019-05-10T00:42:46.480Z,18.10
2019-05-10T00:43:46.287Z,18.80
2019-05-10T00:44:46.295Z,17.20
2019-05-10T00:45:46.307Z,18.60
2019-05-10T00:46:46.305Z,16.10
2019-05-10T00:47:46.312Z,14.80
2019-05-10T00:48:46.315Z,17.40
2019-05-10T00:49:46.330Z,15.70
2019-05-10T00:50:46.338Z,17.20
2019-05-10T00:51:46.335Z,19.00
2019-05-10T00:52:46.334Z,15.60
2019-05-10T00:53:46.353Z,15.30
2019-05-10T00:54:46.357Z,16.20
2019-05-10T00:55:46.363Z,13.70
2019-05-10T00:56:46.386Z,16.00
2019-05-10T00:57:46.380Z,14.90
2019-05-10T00:58:46.382Z,14.00
2019-05-10T00:59:46.419Z,18.60
2019-05-10T01:00:46.406Z,12.90
2019-05-10T01:01:46.408Z,17.50
2019-05-10T01:02:46.418Z,13.50
2019-05-10T01:03:46.417Z,14.10
2019-05-10T01:04:46.424Z,13.20
2019-05-10T01:05:46.427Z,14.30
2019-05-10T01:06:46.435Z,12.20
2019-05-10T01:07:46.445Z,12.30
2019-05-10T01:08:46.449Z,14.80
2019-05-10T01:09:46.464Z,11.40
2019-05-10T01:10:46.456Z,15.60
2019-05-10T01:11:46.472Z,13.70
2019-05-10T01:12:46.474Z,12.60
2019-05-10T01:13:46.499Z,13.80
2019-05-10T01:14:46.499Z,13.70
2019-05-10T01:15:46.999Z,13.90
2019-05-10T01:16:46.510Z,14.80
2019-05-10T01:17:46.526Z,13.60
2019-05-10T01:18:46.538Z,15.50
2019-05-10T01:19:46.525Z,13.60
2019-05-10T01:20:46.530Z,13.90
2019-05-10T01:21:46.545Z,13.90
2019-05-10T01:22:46.541Z,14.80
2019-05-10T01:23:46.570Z,15.00
2019-05-10T01:24:46.557Z,15.90
2019-05-10T01:25:46.558Z,16.70
2019-05-10T01:26:46.586Z,18.10
2019-05-10T01:27:46.576Z,13.30
2019-05-10T01:28:46.581Z,17.20
2019-05-10T01:29:46.583Z,16.40
2019-05-10T01:30:46.609Z,16.40
2019-05-10T01:31:46.600Z,18.50
2019-05-10T01:32:46.608Z,21.10
2019-05-10T01:33:46.677Z,16.50
2019-05-10T01:34:46.614Z,17.90
2019-05-10T01:35:46.622Z,14.40
2019-05-10T01:36:46.635Z,15.30
2019-05-10T01:37:46.636Z,13.60
2019-05-10T01:38:46.687Z,14.30
2019-05-10T01:39:46.644Z,15.50
2019-05-10T01:40:46.663Z,17.90
2019-05-10T01:41:46.667Z,13.90
2019-05-10T01:42:46.673Z,11.40
2019-05-10T01:43:46.661Z,14.70
2019-05-10T01:44:46.678Z,14.40
2019-05-10T01:45:46.681Z,17.90
2019-05-10T01:46:46.693Z,15.60
2019-05-10T01:47:46.700Z,12.20
2019-05-10T01:48:46.702Z,15.50
2019-05-10T01:49:46.715Z,17.10
2019-05-10T01:50:46.716Z,12.60
2019-05-10T01:51:46.789Z,17.40
2019-05-10T01:52:46.724Z,13.40
2019-05-10T01:53:46.736Z,13.90
2019-05-10T01:54:46.738Z,15.10
2019-05-10T01:55:52.146Z,14.20
2019-05-10T01:56:46.749Z,19.20
2019-05-10T01:57:46.783Z,11.70
2019-05-10T01:58:46.767Z,14.30
2019-05-10T01:59:46.776Z,11.30
2019-05-10T02:00:46.775Z,11.30
2019-05-10T02:01:46.778Z,12.80
2019-05-10T02:02:46.786Z,12.50
2019-05-10T02:03:46.793Z,11.70
2019-05-10T02:04:46.797Z,16.90
2019-05-10T02:05:46.820Z,14.10
2019-05-10T02:06:46.812Z,15.30
2019-05-10T02:07:46.826Z,13.30
2019-05-10T02:08:46.826Z,18.70
2019-05-10T02:09:46.832Z,14.70
2019-05-10T02:10:46.843Z,14.20
2019-05-10T02:11:46.844Z,15.90
2019-05-10T02:12:46.851Z,12.60
2019-05-10T02:13:46.866Z,11.60
2019-05-10T02:14:46.861Z,16.10
2019-05-10T02:15:46.869Z,16.10
2019-05-10T02:16:46.875Z,12.00
2019-05-10T02:17:46.881Z,14.40
2019-05-10T02:18:46.893Z,18.10
2019-05-10T02:19:46.898Z,15.00
2019-05-10T02:20:46.901Z,11.00
2019-05-10T02:21:46.910Z,16.90
2019-05-10T02:22:46.956Z,14.50
2019-05-10T02:23:46.917Z,16.40
2019-05-10T02:24:46.941Z,13.80
2019-05-10T02:25:46.941Z,13.90
2019-05-10T02:26:46.939Z,14.90
2019-05-10T02:27:46.941Z,11.40
2019-05-10T02:28:46.944Z,11.50
2019-05-10T02:29:46.958Z,14.00
2019-05-10T02:30:46.965Z,13.90
2019-05-10T02:31:46.978Z,17.10
2019-05-10T02:32:46.975Z,18.50
2019-05-10T02:33:46.987Z,14.20
2019-05-10T02:34:47.077Z,22.40
2019-05-10T02:35:46.992Z,18.10
2019-05-10T02:36:46.998Z,20.10
2019-05-10T02:37:47.005Z,18.80
2019-05-10T02:38:47.021Z,18.40
2019-05-10T02:39:47.014Z,20.50
2019-05-10T02:40:47.025Z,25.60
2019-05-10T02:41:47.037Z,24.00
2019-05-10T02:42:47.062Z,20.50
2019-05-10T02:43:47.042Z,20.80
2019-05-10T02:44:47.046Z,21.80
2019-05-10T02:45:47.055Z,25.70
2019-05-10T02:46:47.128Z,20.80
2019-05-10T02:47:47.077Z,25.80
2019-05-10T02:48:47.092Z,22.50
2019-05-10T02:49:47.077Z,21.50
2019-05-10T02:50:47.077Z,26.70
2019-05-10T02:51:47.088Z,24.70
2019-05-10T02:52:47.091Z,24.40
2019-05-10T02:53:47.099Z,27.10
2019-05-10T02:54:47.107Z,25.30
2019-05-10T02:55:47.111Z,28.80
2019-05-10T02:56:47.115Z,25.70
2019-05-10T02:57:47.122Z,25.00
2019-05-10T02:58:47.138Z,27.10
2019-05-10T02:59:47.138Z,24.60
2019-05-10T03:00:47.147Z,26.50
2019-05-10T03:01:47.147Z,23.30
2019-05-10T03:02:47.140Z,22.80
2019-05-10T03:03:47.156Z,24.20
2019-05-10T03:04:47.168Z,25.20
2019-05-10T03:05:48.678Z,23.90
2019-05-10T03:06:47.175Z,25.40
2019-05-10T03:07:47.176Z,24.40
2019-05-10T03:08:47.201Z,28.00
2019-05-10T03:09:47.192Z,23.30
2019-05-10T03:10:47.191Z,25.10
2019-05-10T03:11:47.244Z,28.10
2019-05-10T03:12:47.217Z,24.40
2019-05-10T03:13:47.208Z,26.30
2019-05-10T03:14:47.217Z,26.90
2019-05-10T03:15:47.217Z,26.20
2019-05-10T03:16:47.224Z,22.50
2019-05-10T03:17:47.242Z,24.90
2019-05-10T03:18:47.241Z,26.30
2019-05-10T03:19:47.246Z,27.10
2019-05-10T03:20:47.255Z,24.40
2019-05-10T03:21:47.257Z,22.30
2019-05-10T03:22:47.271Z,27.90
2019-05-10T03:23:47.271Z,26.90
2019-05-10T03:24:47.278Z,25.20
2019-05-10T03:25:47.291Z,24.70
2019-05-10T03:26:50.992Z,27.30
2019-05-10T03:27:47.301Z,22.10
2019-05-10T03:28:47.295Z,25.80
2019-05-10T03:29:47.300Z,25.50
2019-05-10T03:30:47.310Z,24.20
2019-05-10T03:31:47.316Z,23.70
2019-05-10T03:32:47.344Z,24.60
2019-05-10T03:33:54.837Z,26.80
2019-05-10T03:34:47.345Z,24.20
2019-05-10T03:35:47.357Z,25.40
2019-05-10T03:36:47.343Z,29.40
2019-05-10T03:37:47.349Z,22.80
2019-05-10T03:38:47.353Z,25.90
2019-05-10T03:39:47.388Z,24.50
2019-05-10T03:40:47.374Z,28.70
2019-05-10T03:41:47.371Z,26.80
2019-05-10T03:42:47.378Z,25.00
2019-05-10T03:43:47.373Z,28.20
2019-05-10T03:44:47.389Z,28.20
2019-05-10T03:45:47.405Z,22.60
2019-05-10T03:46:47.398Z,24.00
2019-05-10T03:47:47.406Z,24.70
2019-05-10T03:48:47.428Z,26.30
2019-05-10T03:49:47.416Z,23.80
2019-05-10T03:50:47.418Z,24.00
2019-05-10T03:51:47.472Z,27.50
2019-05-10T03:52:51.710Z,26.30
2019-05-10T03:53:47.512Z,25.20
2019-05-10T03:54:47.456Z,27.20
2019-05-10T03:55:47.456Z,24.00
2019-05-10T03:56:47.457Z,22.30
2019-05-10T03:57:47.454Z,25.70
2019-05-10T03:58:47.468Z,25.70
2019-05-10T03:59:47.469Z,26.80
2019-05-10T04:00:47.484Z,24.70
2019-05-10T04:01:47.486Z,20.30
2019-05-10T04:02:47.490Z,22.80
2019-05-10T04:03:47.501Z,26.90
2019-05-10T04:04:47.501Z,25.60
2019-05-10T04:05:47.520Z,23.30
2019-05-10T04:06:47.509Z,23.10
2019-05-10T04:07:47.521Z,27.70
2019-05-10T04:08:47.531Z,25.50
2019-05-10T04:09:47.527Z,25.40
2019-05-10T04:10:47.559Z,23.10
2019-05-10T04:11:47.541Z,22.60
2019-05-10T04:12:47.543Z,31.10
2019-05-10T04:13:47.551Z,24.80
2019-05-10T04:14:47.559Z,21.80
2019-05-10T04:15:47.567Z,23.50
2019-05-10T04:16:47.569Z,25.90
2019-05-10T04:17:50.179Z,22.70
2019-05-10T04:18:47.594Z,26.80
2019-05-10T04:19:47.577Z,30.00
2019-05-10T04:20:47.595Z,24.10
2019-05-10T04:21:47.670Z,25.30
2019-05-10T04:22:47.609Z,22.20
2019-05-10T04:23:47.639Z,24.80
2019-05-10T04:24:47.610Z,25.50
2019-05-10T04:25:47.619Z,22.00
2019-05-10T04:26:47.624Z,20.50
2019-05-10T04:27:47.634Z,20.60
2019-05-10T04:28:47.640Z,19.60
2019-05-10T04:29:47.655Z,22.60
2019-05-10T04:30:47.652Z,23.00
2019-05-10T04:31:47.658Z,23.20
2019-05-10T04:32:47.663Z,20.30
2019-05-10T04:33:47.664Z,21.10
2019-05-10T04:34:47.679Z,20.90
2019-05-10T04:35:47.680Z,19.70
2019-05-10T04:36:47.690Z,22.20
2019-05-10T04:37:47.691Z,25.70
2019-05-10T04:38:47.701Z,25.50
2019-05-10T04:39:47.708Z,23.90
2019-05-10T04:40:47.706Z,21.60
2019-05-10T04:41:47.732Z,22.80
2019-05-10T04:42:47.730Z,21.10
2019-05-10T04:43:47.726Z,19.70
2019-05-10T04:44:47.725Z,22.50
2019-05-10T04:45:47.741Z,24.00
2019-05-10T04:46:47.754Z,24.00
2019-05-10T04:47:47.765Z,25.10
2019-05-10T04:48:47.751Z,22.60
2019-05-10T04:49:47.758Z,25.30
2019-05-10T04:50:49.392Z,21.30
2019-05-10T04:51:47.769Z,21.20
2019-05-10T04:52:47.781Z,25.70
2019-05-10T04:53:47.789Z,25.30
2019-05-10T04:54:47.783Z,25.30
2019-05-10T04:55:47.801Z,23.80
2019-05-10T04:56:47.805Z,22.80
2019-05-10T04:57:50.963Z,21.40
2019-05-10T04:58:47.812Z,25.90
2019-05-10T04:59:47.821Z,22.10
2019-05-10T05:00:47.830Z,25.80
2019-05-10T05:01:47.842Z,21.80
2019-05-10T05:02:47.845Z,24.80
2019-05-10T05:03:47.850Z,24.40
2019-05-10T05:04:47.853Z,25.90
2019-05-10T05:05:47.859Z,22.20
2019-05-10T05:06:47.862Z,28.50
2019-05-10T05:07:47.857Z,26.30
2019-05-10T05:08:47.871Z,25.30
2019-05-10T05:09:47.882Z,24.30
2019-05-10T05:10:47.887Z,24.30
2019-05-10T05:11:47.909Z,26.10
2019-05-10T05:12:47.920Z,21.50
2019-05-10T05:13:47.903Z,40.90
2019-05-10T05:14:47.906Z,70.00
2019-05-10T05:15:47.959Z,27.00
2019-05-10T05:16:47.924Z,23.00
2019-05-10T05:17:47.936Z,28.20
2019-05-10T05:18:47.933Z,23.40
2019-05-10T05:19:47.942Z,21.20
2019-05-10T05:20:47.945Z,22.90
2019-05-10T05:21:47.979Z,24.80
2019-05-10T05:22:47.964Z,21.50
2019-05-10T05:23:47.956Z,21.20
2019-05-10T05:24:47.972Z,22.70
2019-05-10T05:25:48.075Z,45.20
2019-05-10T05:26:47.981Z,37.10
2019-05-10T05:27:47.985Z,30.80
2019-05-10T05:28:47.992Z,24.90
2019-05-10T05:29:47.995Z,23.80
2019-05-10T05:30:48.004Z,21.20
2019-05-10T05:31:48.020Z,21.90
2019-05-10T05:32:48.020Z,51.20
2019-05-10T05:33:48.020Z,26.60
2019-05-10T05:34:48.104Z,32.20
2019-05-10T05:35:48.034Z,75.70
2019-05-10T05:36:48.049Z,42.80
2019-05-10T05:37:48.047Z,55.50
2019-05-10T05:38:49.602Z,24.70
2019-05-10T05:39:48.058Z,27.00
2019-05-10T05:40:48.073Z,17.10
2019-05-10T05:41:49.621Z,30.80
2019-05-10T05:42:48.087Z,39.20
2019-05-10T05:43:48.294Z,23.30
2019-05-10T05:44:48.091Z,20.50
2019-05-10T05:45:48.102Z,25.90
2019-05-10T05:46:48.113Z,29.40
2019-05-10T05:47:48.122Z,21.50
2019-05-10T05:48:51.313Z,35.60
2019-05-10T05:49:48.120Z,42.60
2019-05-10T05:50:48.129Z,45.70
2019-05-10T05:51:48.138Z,30.90
2019-05-10T05:52:48.148Z,28.00
2019-05-10T05:53:48.199Z,54.20
2019-05-10T05:54:53.050Z,23.20
2019-05-10T05:55:48.160Z,23.50
2019-05-10T05:56:50.693Z,20.40
2019-05-10T05:57:48.170Z,20.00
2019-05-10T05:58:48.181Z,22.80
2019-05-10T05:59:49.166Z,21.80
2019-05-10T06:00:48.194Z,24.00
2019-05-10T06:01:48.199Z,20.90
2019-05-10T06:02:48.205Z,27.60
2019-05-10T06:03:48.306Z,16.80
2019-05-10T06:04:48.213Z,20.10
2019-05-10T06:05:48.223Z,26.10
2019-05-10T06:06:48.229Z,25.10
2019-05-10T06:07:52.003Z,23.40
2019-05-10T06:08:48.244Z,31.30
2019-05-10T06:09:48.244Z,35.00
2019-05-10T06:10:56.745Z,21.40
2019-05-10T06:11:48.293Z,21.50
2019-05-10T06:12:50.517Z,24.20
2019-05-10T06:13:48.270Z,18.60
2019-05-10T06:14:49.611Z,19.00
2019-05-10T06:15:48.288Z,18.40
2019-05-10T06:16:51.163Z,16.70
2019-05-10T06:17:56.628Z,19.20
2019-05-10T06:18:48.984Z,20.00
2019-05-10T06:19:48.315Z,18.40
2019-05-10T06:20:48.312Z,19.60
2019-05-10T06:21:48.325Z,16.20
2019-05-10T06:23:05.263Z,16.80
2019-05-10T06:23:48.337Z,24.60
2019-05-10T06:24:52.488Z,20.40
2019-05-10T06:25:48.349Z,16.90
2019-05-10T06:26:48.354Z,26.50
2019-05-10T06:27:48.366Z,23.00
2019-05-10T06:28:59.636Z,21.30
2019-05-10T06:29:48.386Z,29.00
2019-05-10T06:30:48.385Z,21.40
2019-05-10T06:31:48.392Z,15.20
2019-05-10T06:32:53.405Z,15.10
2019-05-10T06:33:48.404Z,14.90
2019-05-10T06:34:48.417Z,17.70
2019-05-10T06:35:48.417Z,19.40
2019-05-10T06:36:48.420Z,15.20
2019-05-10T06:37:48.428Z,15.90
2019-05-10T06:38:48.444Z,16.20
2019-05-10T06:39:48.520Z,16.30
2019-05-10T06:40:48.458Z,18.60
2019-05-10T06:41:50.100Z,20.00
2019-05-10T06:42:48.460Z,17.20
2019-05-10T06:43:51.226Z,15.00
2019-05-10T06:44:48.476Z,17.30
2019-05-10T06:45:52.764Z,13.80
2019-05-10T06:46:48.487Z,13.10
2019-05-10T06:47:49.696Z,13.10
2019-05-10T06:48:48.501Z,15.80
2019-05-10T06:49:52.014Z,13.90
2019-05-10T06:50:48.517Z,13.40
2019-05-10T06:51:49.299Z,11.50
2019-05-10T06:52:51.850Z,14.00
2019-05-10T06:53:52.631Z,13.70
2019-05-10T06:54:48.544Z,13.20
2019-05-10T06:55:48.547Z,10.80
2019-05-10T06:56:48.564Z,13.30
2019-05-10T06:58:48.569Z,14.00
2019-05-10T06:59:48.569Z,10.50
2019-05-10T07:00:48.578Z,12.40
2019-05-10T07:01:52.027Z,11.20
2019-05-10T07:02:48.603Z,10.30
2019-05-10T07:03:48.614Z,9.90
2019-05-10T07:04:48.619Z,14.20
2019-05-10T07:05:48.625Z,9.20
2019-05-10T07:06:48.641Z,9.90
2019-05-10T07:07:48.657Z,8.90
2019-05-10T07:08:51.944Z,9.80
2019-05-10T07:10:04.150Z,9.80
2019-05-10T07:10:48.659Z,10.00
2019-05-10T07:11:48.671Z,10.00
2019-05-10T07:12:48.698Z,10.00
2019-05-10T07:13:52.756Z,10.50
2019-05-10T07:14:48.691Z,9.70
2019-05-10T07:15:48.707Z,8.60
2019-05-10T07:16:48.718Z,8.80
2019-05-10T07:17:48.720Z,9.10
2019-05-10T07:18:48.730Z,7.20
2019-05-10T07:19:53.554Z,5.80
2019-05-10T07:20:48.752Z,9.60
2019-05-10T07:21:51.270Z,6.50
2019-05-10T07:22:48.768Z,6.90
2019-05-10T07:23:48.777Z,7.80
2019-05-10T07:24:48.784Z,7.60
2019-05-10T07:25:48.796Z,8.90
2019-05-10T07:26:48.805Z,8.30
2019-05-10T07:27:50.415Z,9.00
2019-05-10T07:28:51.807Z,7.40
2019-05-10T07:29:48.827Z,9.30
2019-05-10T07:30:48.846Z,9.50
2019-05-10T07:31:48.850Z,6.40
2019-05-10T07:32:48.855Z,9.90
2019-05-10T07:33:48.863Z,7.40
2019-05-10T07:34:58.276Z,8.60
2019-05-10T07:35:48.881Z,6.70
2019-05-10T07:36:48.886Z,6.80
2019-05-10T07:37:51.894Z,7.90
2019-05-10T07:38:48.921Z,7.00
2019-05-10T07:39:48.921Z,8.40
2019-05-10T07:40:48.931Z,9.00
2019-05-10T07:41:48.943Z,7.90
2019-05-10T07:42:48.940Z,8.60
2019-05-10T07:43:48.952Z,8.40
2019-05-10T07:44:48.964Z,12.10
2019-05-10T07:45:48.973Z,7.60
2019-05-10T07:46:54.008Z,7.50
2019-05-10T07:47:49.007Z,9.40
2019-05-10T07:48:53.551Z,7.50
2019-05-10T07:49:49.015Z,6.70
2019-05-10T07:50:51.745Z,8.10
2019-05-10T07:51:49.032Z,4.80
2019-05-10T07:52:49.042Z,5.80
2019-05-10T07:53:49.048Z,6.60
2019-05-10T07:54:49.099Z,5.40
2019-05-10T07:55:49.066Z,6.40
2019-05-10T07:56:49.072Z,7.50
2019-05-10T07:57:49.080Z,4.20
2019-05-10T07:58:49.101Z,5.90
2019-05-10T07:59:51.068Z,4.60
2019-05-10T08:00:49.116Z,4.10
2019-05-10T08:01:49.332Z,8.60
2019-05-10T08:02:51.212Z,9.00
2019-05-10T08:03:52.471Z,10.90
2019-05-10T08:04:53.307Z,8.80
2019-05-10T08:05:55.105Z,4.80
2019-05-10T08:06:52.034Z,5.90
2019-05-10T08:07:49.604Z,5.20
2019-05-10T08:08:49.792Z,16.60
2019-05-10T08:09:49.198Z,12.30
2019-05-10T08:10:49.218Z,53.40
2019-05-10T08:11:53.895Z,17.00
2019-05-10T08:12:49.221Z,8.10
2019-05-10T08:13:49.240Z,20.30
2019-05-10T08:14:53.241Z,38.30
2019-05-10T08:15:49.253Z,31.60
2019-05-10T08:16:58.148Z,13.70
2019-05-10T08:17:50.937Z,47.10
2019-05-10T08:18:49.781Z,60.70
2019-05-10T08:19:49.289Z,41.40
2019-05-10T08:20:55.105Z,49.50
2019-05-10T08:21:56.426Z,40.30
2019-05-10T08:22:49.308Z,18.50
2019-05-10T08:23:49.324Z,14.20
2019-05-10T08:24:52.692Z,8.40
2019-05-10T08:25:49.334Z,7.70
2019-05-10T08:26:49.343Z,9.90
2019-05-10T08:27:55.039Z,7.90
2019-05-10T08:28:49.358Z,4.40
2019-05-10T08:29:52.844Z,6.10
2019-05-10T08:30:53.573Z,5.70
2019-05-10T08:31:53.671Z,11.60
2019-05-10T08:32:49.389Z,13.00
2019-05-10T08:33:56.091Z,12.80
2019-05-10T08:34:53.001Z,8.20
2019-05-10T08:35:52.468Z,7.00
2019-05-10T08:36:49.413Z,6.80
2019-05-10T08:37:49.426Z,8.50
2019-05-10T08:39:03.165Z,7.30
2019-05-10T08:39:53.484Z,7.40
2019-05-10T08:40:49.454Z,5.60
2019-05-10T08:42:03.612Z,4.70
2019-05-10T08:43:00.208Z,7.90
2019-05-10T08:43:49.477Z,9.10
2019-05-10T08:44:54.171Z,5.20
2019-05-10T08:45:52.269Z,5.10
2019-05-10T08:46:49.548Z,6.80
2019-05-10T08:47:52.941Z,5.20
2019-05-10T08:48:53.119Z,5.80
2019-05-10T08:50:06.089Z,5.70
2019-05-10T08:50:56.644Z,5.50
2019-05-10T08:51:52.059Z,5.20
2019-05-10T08:52:49.532Z,24.20
2019-05-10T08:53:53.609Z,12.80
2019-05-10T08:54:49.569Z,8.40
2019-05-10T08:55:49.563Z,6.70
2019-05-10T08:56:54.935Z,7.90
2019-05-10T08:57:49.580Z,11.80
2019-05-10T08:58:49.593Z,14.90
2019-05-10T08:59:54.093Z,12.10
2019-05-10T09:01:04.792Z,6.00
2019-05-10T09:01:50.866Z,8.30
2019-05-10T09:02:51.447Z,7.50
2019-05-10T09:03:55.648Z,10.30
2019-05-10T09:04:50.418Z,4.60
2019-05-10T09:05:52.238Z,6.40
2019-05-10T09:06:55.503Z,4.90
2019-05-10T09:07:51.912Z,7.20
2019-05-10T09:08:52.825Z,18.10
2019-05-10T09:09:50.235Z,13.00
2019-05-10T09:10:49.689Z,5.70
2019-05-10T09:11:52.037Z,6.40
2019-05-10T09:12:54.357Z,6.30
2019-05-10T09:13:49.722Z,5.10
2019-05-10T09:14:57.640Z,4.90
2019-05-10T09:15:54.318Z,4.40
2019-05-10T09:16:59.807Z,16.30
2019-05-10T09:17:49.749Z,6.60
2019-05-10T09:18:51.217Z,4.80
2019-05-10T09:19:51.729Z,5.00
2019-05-10T09:20:51.434Z,4.40
2019-05-10T09:21:54.312Z,4.40
2019-05-10T09:22:49.784Z,2.20
2019-05-10T09:23:52.832Z,4.20
2019-05-10T09:24:50.083Z,5.40
2019-05-10T09:25:51.898Z,2.40
2019-05-10T09:26:54.755Z,4.60
2019-05-10T09:27:49.833Z,2.70
2019-05-10T09:28:55.570Z,4.80
2019-05-10T09:29:49.851Z,2.20
2019-05-10T09:30:57.616Z,4.80
2019-05-10T09:31:51.238Z,5.30
2019-05-10T09:32:51.902Z,3.80
2019-05-10T09:33:52.005Z,7.60
2019-05-10T09:34:54.108Z,3.30
2019-05-10T09:35:52.310Z,6.50
2019-05-10T09:36:49.918Z,4.80
2019-05-10T09:37:54.082Z,4.40
2019-05-10T09:38:52.467Z,5.40
2019-05-10T09:39:54.860Z,4.90
2019-05-10T09:40:53.022Z,5.60
2019-05-10T09:41:52.477Z,7.80
2019-05-10T09:42:52.142Z,5.10
2019-05-10T09:43:50.629Z,4.00
2019-05-10T09:44:49.998Z,4.90
2019-05-10T09:45:50.115Z,5.50
2019-05-10T09:46:52.322Z,5.30
2019-05-10T09:47:50.082Z,7.20
2019-05-10T09:48:54.699Z,4.70
2019-05-10T09:49:54.040Z,5.10
2019-05-10T09:50:55.150Z,7.60
2019-05-10T09:51:50.175Z,6.30
2019-05-10T09:52:50.237Z,5.80
2019-05-10T09:53:50.227Z,5.80
2019-05-10T09:54:50.104Z,7.50
2019-05-10T09:55:55.278Z,5.20
2019-05-10T09:56:52.215Z,5.80
2019-05-10T09:57:50.163Z,6.10
2019-05-10T09:58:50.139Z,8.30
2019-05-10T09:59:50.150Z,8.70
2019-05-10T10:00:50.156Z,8.00
2019-05-10T10:01:50.155Z,7.60
2019-05-10T10:02:56.249Z,5.40
2019-05-10T10:03:50.183Z,8.20
2019-05-10T10:04:50.208Z,5.30
2019-05-10T10:05:55.366Z,11.30
2019-05-10T10:06:52.698Z,6.30
2019-05-10T10:07:50.222Z,4.40
2019-05-10T10:08:53.363Z,7.20
2019-05-10T10:09:50.237Z,6.10
2019-05-10T10:10:50.252Z,10.20
2019-05-10T10:11:58.105Z,4.60
2019-05-10T10:12:50.374Z,16.70
2019-05-10T10:13:59.014Z,6.60
2019-05-10T10:14:50.308Z,6.20
2019-05-10T10:15:52.433Z,3.60
2019-05-10T10:16:58.394Z,9.20
2019-05-10T10:17:50.329Z,7.80
2019-05-10T10:18:50.323Z,7.40
2019-05-10T10:19:50.330Z,7.10
2019-05-10T10:20:50.336Z,7.70
2019-05-10T10:21:50.357Z,5.90
2019-05-10T10:22:54.416Z,7.30
2019-05-10T10:23:50.375Z,4.60
2019-05-10T10:24:54.976Z,5.80
2019-05-10T10:25:50.389Z,6.40
2019-05-10T10:26:54.014Z,7.70
2019-05-10T10:27:50.407Z,7.60
2019-05-10T10:28:54.962Z,5.20
2019-05-10T10:29:50.425Z,5.50
2019-05-10T10:30:59.086Z,6.90
2019-05-10T10:31:55.463Z,8.20
2019-05-10T10:32:50.448Z,6.20
2019-05-10T10:33:58.023Z,5.50
2019-05-10T10:34:54.401Z,4.80
2019-05-10T10:35:50.483Z,7.30
2019-05-10T10:36:50.509Z,5.70
2019-05-10T10:37:50.501Z,8.00
2019-05-10T10:38:50.519Z,5.90
2019-05-10T10:39:54.505Z,6.20
2019-05-10T10:40:50.534Z,10.40
2019-05-10T10:41:52.169Z,7.90
2019-05-10T10:42:50.540Z,8.10
2019-05-10T10:43:50.548Z,8.10
2019-05-10T10:44:50.558Z,9.40
2019-05-10T10:45:50.597Z,8.30
2019-05-10T10:46:50.583Z,6.20
2019-05-10T10:47:50.590Z,8.40
2019-05-10T10:48:51.447Z,7.70
2019-05-10T10:49:50.609Z,6.10
2019-05-10T10:50:55.561Z,6.50
2019-05-10T10:51:50.621Z,7.80
2019-05-10T10:52:50.633Z,6.10
2019-05-10T10:53:54.296Z,8.10
2019-05-10T10:54:50.661Z,5.90
2019-05-10T10:55:54.304Z,6.10
2019-05-10T10:56:50.668Z,6.30
2019-05-10T10:57:50.672Z,6.40
2019-05-10T10:58:50.681Z,7.50
2019-05-10T10:59:50.695Z,7.00
2019-05-10T11:00:50.698Z,7.30
2019-05-10T11:02:23.343Z,8.10
2019-05-10T11:02:51.900Z,5.30
2019-05-10T11:03:50.724Z,4.40
2019-05-10T11:04:50.738Z,9.10
2019-05-10T11:05:50.761Z,5.60
2019-05-10T11:06:50.757Z,9.50
2019-05-10T11:07:51.245Z,6.20
2019-05-10T11:08:51.822Z,5.70
2019-05-10T11:09:55.913Z,9.30
2019-05-10T11:10:50.897Z,5.70
2019-05-10T11:11:51.553Z,5.60
2019-05-10T11:12:51.327Z,7.50
2019-05-10T11:14:00.521Z,6.80
2019-05-10T11:14:50.829Z,8.40
2019-05-10T11:15:51.587Z,8.80
2019-05-10T11:16:55.471Z,9.70
2019-05-10T11:17:50.844Z,6.10
2019-05-10T11:18:51.977Z,7.10
2019-05-10T11:19:50.871Z,6.30
2019-05-10T11:20:53.975Z,6.70
2019-05-10T11:21:51.386Z,6.40
2019-05-10T11:22:53.396Z,5.20
2019-05-10T11:23:50.907Z,8.20
2019-05-10T11:24:59.462Z,5.10
2019-05-10T11:25:56.281Z,8.60
2019-05-10T11:26:51.653Z,7.40
2019-05-10T11:27:53.875Z,7.30
2019-05-10T11:28:51.379Z,8.60
2019-05-10T11:29:54.609Z,7.00
2019-05-10T11:30:51.295Z,8.30
2019-05-10T11:32:11.030Z,9.40
2019-05-10T11:32:50.993Z,7.20
2019-05-10T11:33:56.069Z,4.40
2019-05-10T11:34:51.015Z,6.00
2019-05-10T11:35:51.475Z,8.00
2019-05-10T11:36:51.280Z,6.80
2019-05-10T11:37:51.054Z,6.90
2019-05-10T11:38:56.506Z,11.40
2019-05-10T11:39:51.064Z,7.30
2019-05-10T11:40:51.090Z,6.90
2019-05-10T11:41:52.795Z,6.80
2019-05-10T11:42:51.245Z,5.50
2019-05-10T11:43:51.114Z,4.60
2019-05-10T11:44:54.495Z,7.80
2019-05-10T11:45:51.528Z,5.30
2019-05-10T11:46:51.133Z,6.70
2019-05-10T11:47:57.134Z,5.50
2019-05-10T11:48:51.222Z,9.00
2019-05-10T11:49:51.160Z,7.70
2019-05-10T11:50:51.538Z,7.80
2019-05-10T11:51:54.795Z,4.70
2019-05-10T11:52:51.579Z,5.00
2019-05-10T11:53:55.375Z,5.80
2019-05-10T11:54:51.483Z,4.70
2019-05-10T11:55:51.822Z,6.50
2019-05-10T11:58:01.946Z,9.90
2019-05-10T11:58:55.366Z,8.80
2019-05-10T11:59:51.664Z,5.80
2019-05-10T12:00:56.528Z,6.30
2019-05-10T12:01:57.952Z,7.30
2019-05-10T12:03:51.303Z,6.00
2019-05-10T12:06:04.286Z,7.60
2019-05-10T12:06:51.551Z,7.30
2019-05-10T12:07:54.577Z,7.90
2019-05-10T12:10:03.101Z,5.60
2019-05-10T12:10:53.791Z,6.40
2019-05-10T12:11:52.159Z,8.20
2019-05-10T12:13:06.105Z,5.90
2019-05-10T12:13:52.955Z,10.30
2019-05-10T12:14:53.935Z,5.60
2019-05-10T12:15:52.218Z,10.10
2019-05-10T12:16:54.513Z,9.00
2019-05-10T12:17:57.962Z,5.80
2019-05-10T12:19:02.392Z,5.70
2019-05-10T12:19:56.251Z,6.10
2019-05-10T12:21:00.217Z,5.90
2019-05-10T12:21:55.580Z,4.10
2019-05-10T12:22:51.978Z,4.90
2019-05-10T12:23:55.988Z,6.40
2019-05-10T12:25:06.060Z,6.80
2019-05-10T12:26:19.144Z,5.10
2019-05-10T12:26:31.060Z,5.20
2019-05-10T12:26:35.813Z,10.90
2019-05-10T12:26:59.068Z,5.70
2019-05-10T12:27:17.312Z,5.70
2019-05-10T12:27:52.427Z,4.40
2019-05-10T12:28:51.714Z,5.50
2019-05-10T12:29:56.195Z,6.80
2019-05-10T12:30:51.612Z,4.20
2019-05-10T12:31:55.069Z,6.80
2019-05-10T12:32:56.502Z,4.10
2019-05-10T12:33:51.624Z,4.40
2019-05-10T12:34:56.353Z,4.70
2019-05-10T12:35:51.650Z,7.40
2019-05-10T12:36:52.045Z,5.10
2019-05-10T12:37:54.230Z,7.20
2019-05-10T12:38:51.700Z,6.50
2019-05-10T12:39:53.231Z,5.10
2019-05-10T12:40:51.707Z,5.80
2019-05-10T12:41:53.125Z,4.30
2019-05-10T12:42:51.723Z,5.90
2019-05-10T12:43:51.908Z,7.20
2019-05-10T12:44:55.395Z,4.40
2019-05-10T12:45:52.023Z,4.80
2019-05-10T12:46:54.292Z,4.40
2019-05-10T12:47:52.086Z,6.00
2019-05-10T12:48:51.814Z,6.50
2019-05-10T12:49:53.881Z,5.60
2019-05-10T12:50:55.152Z,5.80
2019-05-10T12:51:51.828Z,6.10
2019-05-10T12:53:03.784Z,8.10
2019-05-10T12:53:52.313Z,5.50
2019-05-10T12:54:51.862Z,5.50
2019-05-10T12:55:51.862Z,7.60
2019-05-10T12:56:51.873Z,6.20
2019-05-10T12:57:51.877Z,8.20
2019-05-10T12:58:57.450Z,6.50
2019-05-10T12:59:51.911Z,5.40
2019-05-10T13:00:53.032Z,5.70
2019-05-10T13:01:51.915Z,6.20
2019-05-10T13:02:53.467Z,5.10
2019-05-10T13:03:51.944Z,4.60
2019-05-10T13:04:52.387Z,7.60
2019-05-10T13:05:53.341Z,9.80